createdAt,value
2017-11-28T00:01:14.556Z,91.60
2017-11-28T00:03:42.140Z,91.60
2017-11-28T00:06:09.694Z,91.70
2017-11-28T00:08:37.257Z,91.70
2017-11-28T00:11:04.847Z,91.80
2017-11-28T00:13:32.408Z,91.80
2017-11-28T00:16:00.026Z,91.70
2017-11-28T00:18:27.628Z,91.80
2017-11-28T00:20:55.195Z,92.10
2017-11-28T00:23:22.788Z,92.10
2017-11-28T00:25:50.353Z,92.10
2017-11-28T00:28:17.931Z,92.10
2017-11-28T00:30:45.478Z,91.90
2017-11-28T00:33:13.799Z,91.90
2017-11-28T00:35:43.190Z,91.90
2017-11-28T00:38:11.402Z,92.00
2017-11-28T00:40:38.982Z,91.80
2017-11-28T00:43:07.294Z,92.00
2017-11-28T00:45:34.893Z,92.00
2017-11-28T00:48:02.502Z,91.80
2017-11-28T00:50:30.119Z,91.70
2017-11-28T00:52:57.692Z,91.60
2017-11-28T00:55:26.035Z,91.60
2017-11-28T00:57:53.619Z,91.60
2017-11-28T01:00:21.197Z,91.90
2017-11-28T01:02:48.772Z,91.70
2017-11-28T01:05:16.354Z,91.40
2017-11-28T01:07:43.942Z,91.70
2017-11-28T01:10:11.528Z,91.60
2017-11-28T01:12:39.857Z,91.60
2017-11-28T01:15:07.431Z,91.60
2017-11-28T01:17:34.997Z,91.70
2017-11-28T01:20:02.568Z,91.50
2017-11-28T01:22:30.265Z,91.70
2017-11-28T01:25:01.485Z,91.60
2017-11-28T01:27:29.029Z,91.60
2017-11-28T01:29:56.586Z,91.90
2017-11-28T01:32:24.143Z,92.00
2017-11-28T01:34:51.678Z,92.00
2017-11-28T01:37:19.248Z,91.80
2017-11-28T01:39:46.803Z,92.00
2017-11-28T01:42:14.383Z,92.10
2017-11-28T01:44:41.994Z,91.60
2017-11-28T01:47:10.351Z,91.90
2017-11-28T01:49:37.911Z,91.80
2017-11-28T01:52:05.500Z,91.70
2017-11-28T01:54:33.830Z,91.60
2017-11-28T01:57:01.389Z,91.60
2017-11-28T01:59:28.952Z,91.70
2017-11-28T02:01:56.535Z,91.70
2017-11-28T02:04:24.129Z,91.60
2017-11-28T02:06:51.703Z,91.60
2017-11-28T02:09:19.260Z,91.50
2017-11-28T02:11:46.838Z,91.50
2017-11-28T02:14:14.416Z,91.60
2017-11-28T02:16:41.976Z,91.70
2017-11-28T02:19:09.541Z,91.40
2017-11-28T02:21:37.159Z,91.40
2017-11-28T02:24:05.495Z,91.20
2017-11-28T02:26:33.051Z,91.20
2017-11-28T02:29:00.638Z,91.20
2017-11-28T02:31:29.335Z,91.30
2017-11-28T02:33:57.249Z,91.30
2017-11-28T02:36:24.862Z,91.10
2017-11-28T02:38:53.208Z,91.20
2017-11-28T02:41:22.305Z,91.20
2017-11-28T02:44:00.651Z,91.40
2017-11-28T02:46:28.313Z,91.40
2017-11-28T02:49:04.407Z,91.00
2017-11-28T02:51:31.947Z,91.00
2017-11-28T02:53:59.567Z,91.10
2017-11-28T02:56:27.154Z,91.30
2017-11-28T02:59:09.244Z,91.60
2017-11-28T03:01:56.255Z,91.20
2017-11-28T03:04:23.823Z,91.20
2017-11-28T03:06:51.405Z,91.40
2017-11-28T03:09:22.758Z,91.30
2017-11-28T03:11:50.310Z,91.50
2017-11-28T03:14:23.398Z,91.30
2017-11-28T03:16:50.960Z,91.50
2017-11-28T03:19:31.253Z,91.30
2017-11-28T03:22:01.706Z,91.20
2017-11-28T03:24:33.866Z,91.50
2017-11-28T03:27:01.470Z,91.70
2017-11-28T03:29:44.731Z,91.80
2017-11-28T03:32:12.313Z,91.60
2017-11-28T03:34:39.872Z,91.50
2017-11-28T03:37:07.448Z,91.30
2017-11-28T03:39:35.016Z,91.70
2017-11-28T03:42:02.600Z,91.80
2017-11-28T03:44:53.996Z,91.80
2017-11-28T03:47:21.631Z,91.70
2017-11-28T03:49:49.177Z,91.90
2017-11-28T03:52:16.746Z,91.90
2017-11-28T03:54:44.334Z,91.70
2017-11-28T03:57:11.907Z,91.80
2017-11-28T03:59:40.234Z,91.90
2017-11-28T04:02:07.799Z,91.90
2017-11-28T04:04:35.361Z,92.00
2017-11-28T04:07:02.951Z,91.90
2017-11-28T04:09:30.526Z,92.10
2017-11-28T04:11:58.895Z,92.20
2017-11-28T04:14:26.506Z,92.30
2017-11-28T04:16:54.082Z,92.50
2017-11-28T04:19:21.780Z,92.50
2017-11-28T04:21:50.135Z,92.60
2017-11-28T04:24:17.749Z,92.60
2017-11-28T04:26:46.082Z,92.50
2017-11-28T04:29:14.015Z,92.50
2017-11-28T04:31:41.627Z,92.60
2017-11-28T04:34:09.210Z,92.10
2017-11-28T04:36:37.627Z,92.70
2017-11-28T04:39:05.193Z,92.70
2017-11-28T04:41:32.786Z,93.00
2017-11-28T04:44:00.379Z,92.60
2017-11-28T04:46:27.987Z,92.60
2017-11-28T04:48:55.567Z,92.40
2017-11-28T04:51:23.129Z,92.50
2017-11-28T04:53:50.723Z,92.40
2017-11-28T04:56:18.376Z,92.40
2017-11-28T04:58:46.766Z,92.40
2017-11-28T05:01:15.290Z,92.40
2017-11-28T05:03:42.969Z,92.70
2017-11-28T05:06:10.558Z,92.60
2017-11-28T05:08:38.875Z,92.40
2017-11-28T05:11:06.449Z,92.40
2017-11-28T05:13:34.030Z,92.50
2017-11-28T05:16:01.627Z,92.50
2017-11-28T05:18:29.219Z,92.50
2017-11-28T05:20:56.796Z,92.40
2017-11-28T05:23:24.389Z,92.40
2017-11-28T05:25:52.727Z,92.40
2017-11-28T05:28:20.317Z,92.40
2017-11-28T05:30:47.929Z,92.80
2017-11-28T05:33:15.545Z,92.80
2017-11-28T05:35:43.972Z,92.60
2017-11-28T05:38:11.589Z,92.60
2017-11-28T05:40:39.939Z,92.60
2017-11-28T05:43:07.511Z,92.60
2017-11-28T05:45:35.080Z,92.50
2017-11-28T05:48:02.655Z,92.50
2017-11-28T05:50:31.005Z,92.30
2017-11-28T05:52:58.595Z,92.30
2017-11-28T05:55:26.934Z,92.60
2017-11-28T05:57:54.577Z,92.50
2017-11-28T06:00:22.972Z,92.50
2017-11-28T06:02:50.553Z,92.50
2017-11-28T06:05:18.549Z,92.50
2017-11-28T06:07:46.954Z,92.40
2017-11-28T06:10:14.573Z,92.40
2017-11-28T06:12:42.955Z,93.10
2017-11-28T06:15:10.581Z,92.80
2017-11-28T06:17:38.196Z,92.80
2017-11-28T06:20:06.536Z,92.30
2017-11-28T06:22:34.103Z,92.30
2017-11-28T06:25:01.693Z,92.40
2017-11-28T06:27:30.045Z,92.50
2017-11-28T06:29:57.598Z,92.50
2017-11-28T06:32:25.162Z,92.70
2017-11-28T06:34:52.736Z,92.50
2017-11-28T06:37:21.070Z,92.30
2017-11-28T06:39:48.658Z,92.30
2017-11-28T06:42:20.598Z,92.40
2017-11-28T06:44:48.179Z,92.30
2017-11-28T06:47:16.009Z,92.30
2017-11-28T06:49:43.590Z,92.30
2017-11-28T06:52:11.167Z,92.40
2017-11-28T06:54:38.748Z,92.50
2017-11-28T06:57:07.945Z,92.30
2017-11-28T06:59:35.560Z,92.30
2017-11-28T07:02:03.154Z,92.40
2017-11-28T07:04:30.741Z,92.50
2017-11-28T07:06:59.367Z,92.30
2017-11-28T07:09:27.715Z,92.20
2017-11-28T07:11:55.298Z,92.20
2017-11-28T07:14:22.861Z,92.30
2017-11-28T07:16:50.486Z,92.30
2017-11-28T07:19:18.052Z,92.30
2017-11-28T07:21:45.669Z,92.40
2017-11-28T07:24:13.230Z,91.90
2017-11-28T07:26:40.831Z,92.20
2017-11-28T07:29:08.401Z,92.10
2017-11-28T07:31:35.986Z,92.30
2017-11-28T07:34:03.563Z,92.20
2017-11-28T07:36:31.125Z,92.50
2017-11-28T07:38:58.723Z,92.50
2017-11-28T07:41:27.197Z,92.50
2017-11-28T07:43:55.536Z,92.40
2017-11-28T07:46:23.152Z,92.20
2017-11-28T07:48:50.722Z,92.30
2017-11-28T07:51:18.504Z,92.60
2017-11-28T07:53:46.092Z,92.50
2017-11-28T07:56:13.648Z,92.30
2017-11-28T07:58:41.255Z,92.40
2017-11-28T08:01:09.618Z,92.50
2017-11-28T08:03:37.233Z,92.50
2017-11-28T08:06:04.893Z,92.40
2017-11-28T08:08:32.483Z,92.60
2017-11-28T08:11:00.137Z,92.80
2017-11-28T08:13:27.709Z,92.50
2017-11-28T08:15:55.312Z,92.40
2017-11-28T08:18:23.663Z,92.20
2017-11-28T08:20:52.069Z,92.10
2017-11-28T08:23:19.683Z,92.00
2017-11-28T08:25:47.265Z,91.90
2017-11-28T08:28:14.864Z,91.70
2017-11-28T08:30:42.441Z,92.00
2017-11-28T08:33:10.028Z,92.00
2017-11-28T08:35:37.607Z,91.80
2017-11-28T08:38:05.956Z,92.30
2017-11-28T08:40:33.534Z,92.30
2017-11-28T08:43:01.100Z,92.10
2017-11-28T08:45:28.746Z,91.70
2017-11-28T08:47:56.485Z,92.30
2017-11-28T08:50:24.131Z,91.80
2017-11-28T08:52:51.794Z,91.90
2017-11-28T08:55:19.490Z,91.90
2017-11-28T08:57:47.053Z,91.90
2017-11-28T09:00:14.648Z,91.80
2017-11-28T09:02:43.018Z,91.90
2017-11-28T09:05:10.614Z,91.90
2017-11-28T09:07:38.180Z,91.80
2017-11-28T09:10:05.756Z,91.50
2017-11-28T09:12:33.333Z,91.40
2017-11-28T09:15:00.902Z,91.60
2017-11-28T09:17:28.543Z,91.70
2017-11-28T09:19:56.110Z,91.70
2017-11-28T09:22:23.668Z,92.00
2017-11-28T09:24:51.253Z,91.90
2017-11-28T09:27:18.822Z,91.90
2017-11-28T09:29:46.393Z,92.10
2017-11-28T09:32:14.754Z,92.30
2017-11-28T09:34:42.311Z,92.30
2017-11-28T09:37:09.879Z,92.50
2017-11-28T09:39:37.430Z,92.60
2017-11-28T09:42:05.025Z,92.70
2017-11-28T09:44:33.375Z,92.50
2017-11-28T09:47:00.947Z,92.50
2017-11-28T09:49:28.506Z,92.40
2017-11-28T09:51:56.847Z,92.40
2017-11-28T09:54:24.460Z,92.40
2017-11-28T09:56:52.788Z,92.20
2017-11-28T09:59:20.376Z,92.10
2017-11-28T10:01:47.953Z,92.10
2017-11-28T10:04:16.299Z,91.50
2017-11-28T10:06:43.855Z,91.50
2017-11-28T10:09:11.462Z,91.40
2017-11-28T10:11:39.797Z,91.40
2017-11-28T10:14:07.353Z,91.40
2017-11-28T10:16:34.944Z,91.00
2017-11-28T10:19:03.283Z,90.80
2017-11-28T10:21:30.853Z,90.70
2017-11-28T10:23:58.471Z,90.30
2017-11-28T10:26:26.051Z,90.40
2017-11-28T10:28:53.854Z,90.00
2017-11-28T10:31:21.432Z,90.30
2017-11-28T10:33:49.813Z,90.50
2017-11-28T10:36:18.156Z,90.20
2017-11-28T10:38:45.732Z,90.20
2017-11-28T10:41:13.308Z,89.80
2017-11-28T10:43:41.671Z,89.50
2017-11-28T10:46:09.268Z,89.50
2017-11-28T10:48:36.858Z,88.60
2017-11-28T10:51:04.433Z,88.60
2017-11-28T10:53:32.022Z,87.80
2017-11-28T10:55:59.577Z,87.60
2017-11-28T10:58:27.168Z,87.10
2017-11-28T11:00:54.734Z,86.90
2017-11-28T11:03:22.325Z,86.80
2017-11-28T11:05:49.910Z,86.80
2017-11-28T11:08:17.491Z,86.90
2017-11-28T11:10:45.886Z,86.20
2017-11-28T11:13:13.491Z,86.20
2017-11-28T11:15:41.072Z,85.90
2017-11-28T11:18:08.669Z,85.50
2017-11-28T11:20:36.285Z,85.60
2017-11-28T11:23:03.842Z,86.10
2017-11-28T11:25:31.467Z,84.90
2017-11-28T11:27:59.026Z,85.90
2017-11-28T11:30:26.619Z,85.30
2017-11-28T11:32:54.188Z,85.40
2017-11-28T11:35:21.780Z,84.60
2017-11-28T11:37:50.129Z,84.60
2017-11-28T11:40:17.702Z,84.60
2017-11-28T11:42:45.253Z,84.10
2017-11-28T11:45:12.822Z,83.10
2017-11-28T11:47:40.430Z,83.40
2017-11-28T11:50:08.212Z,84.00
2017-11-28T11:55:09.995Z,83.20
2017-11-28T11:57:37.534Z,83.60
2017-11-28T12:00:05.136Z,83.50
2017-11-28T12:02:32.751Z,83.70
2017-11-28T12:05:03.483Z,83.40
2017-11-28T12:07:31.121Z,83.50
2017-11-28T12:09:59.464Z,83.60
2017-11-28T12:12:27.058Z,83.50
2017-11-28T12:14:55.393Z,84.20
2017-11-28T12:17:22.940Z,84.20
2017-11-28T12:19:50.520Z,84.20
2017-11-28T12:22:18.085Z,84.30
2017-11-28T12:24:45.688Z,84.00
2017-11-28T12:27:13.291Z,84.10
2017-11-28T12:29:40.901Z,84.60
2017-11-28T12:32:09.240Z,84.70
2017-11-28T12:34:36.833Z,84.50
2017-11-28T12:37:04.410Z,84.50
2017-11-28T12:39:32.746Z,88.90
2017-11-28T12:42:00.356Z,88.70
2017-11-28T12:44:27.930Z,82.20
2017-11-28T12:46:55.509Z,81.70
2017-11-28T12:49:23.144Z,81.80
2017-11-28T12:51:51.529Z,83.80
2017-11-28T12:54:19.120Z,83.70
2017-11-28T12:56:46.719Z,84.60
2017-11-28T12:59:15.066Z,85.10
2017-11-28T13:01:42.663Z,85.10
2017-11-28T13:04:11.713Z,85.60
2017-11-28T13:06:39.328Z,85.60
2017-11-28T13:09:07.754Z,86.60
2017-11-28T13:11:35.311Z,86.60
2017-11-28T13:14:02.886Z,86.70
2017-11-28T13:16:30.444Z,86.80
2017-11-28T13:18:58.038Z,87.50
2017-11-28T13:21:26.386Z,93.00
2017-11-28T13:23:53.972Z,93.00
2017-11-28T13:26:21.521Z,92.20
2017-11-28T13:28:49.132Z,84.00
2017-11-28T13:31:16.710Z,84.30
2017-11-28T13:33:44.304Z,85.40
2017-11-28T13:36:11.897Z,86.70
2017-11-28T13:38:40.240Z,86.60
2017-11-28T13:41:07.856Z,86.50
2017-11-28T13:43:35.428Z,87.20
2017-11-28T13:46:07.655Z,86.90
2017-11-28T13:48:35.979Z,87.60
2017-11-28T13:51:03.584Z,87.50
2017-11-28T13:53:31.153Z,87.60
2017-11-28T13:55:59.510Z,88.30
2017-11-28T13:58:27.089Z,88.20
2017-11-28T14:00:55.471Z,88.40
2017-11-28T14:03:23.838Z,88.90
2017-11-28T14:05:51.394Z,88.70
2017-11-28T14:08:18.940Z,88.60
2017-11-28T14:10:46.527Z,88.40
2017-11-28T14:13:14.881Z,87.50
2017-11-28T14:15:42.466Z,87.50
2017-11-28T14:18:10.801Z,87.90
2017-11-28T14:20:45.090Z,87.90
2017-11-28T14:23:18.356Z,88.20
2017-11-28T14:25:48.391Z,89.10
2017-11-28T14:28:21.562Z,89.00
2017-11-28T14:30:54.706Z,89.60
2017-11-28T14:33:25.005Z,89.60
2017-11-28T14:36:08.062Z,90.10
2017-11-28T14:38:35.651Z,90.00
2017-11-28T14:41:08.896Z,90.40
2017-11-28T14:43:36.551Z,90.60
2017-11-28T14:46:04.775Z,90.40
2017-11-28T14:48:32.379Z,90.30
2017-11-28T14:51:08.589Z,90.40
2017-11-28T14:53:41.953Z,90.30
2017-11-28T14:56:21.005Z,90.30
2017-11-28T14:58:54.948Z,90.40
2017-11-28T15:01:32.466Z,90.40
2017-11-28T15:04:05.608Z,90.40
2017-11-28T15:06:39.582Z,90.50
2017-11-28T15:09:13.021Z,90.50
2017-11-28T15:11:46.195Z,90.50
2017-11-28T15:14:19.324Z,90.60
2017-11-28T15:16:53.347Z,91.00
2017-11-28T15:19:22.798Z,91.00
2017-11-28T15:21:51.279Z,91.00
2017-11-28T15:24:19.825Z,91.00
2017-11-28T15:26:47.409Z,90.90
2017-11-28T15:29:15.032Z,90.80
2017-11-28T15:31:43.472Z,90.90
2017-11-28T15:34:11.948Z,90.90
2017-11-28T15:36:41.798Z,90.80
2017-11-28T15:39:10.494Z,90.90
2017-11-28T15:41:39.068Z,90.90
2017-11-28T15:44:06.652Z,90.90
2017-11-28T15:46:35.018Z,90.90
2017-11-28T15:49:03.367Z,91.10
2017-11-28T15:51:31.169Z,91.10
2017-11-28T15:53:59.913Z,91.00
2017-11-28T15:56:27.481Z,91.00
2017-11-28T15:58:55.219Z,91.20
2017-11-28T16:01:26.096Z,91.60
2017-11-28T16:03:56.482Z,91.40
2017-11-28T16:06:27.406Z,91.70
2017-11-28T16:08:57.803Z,92.20
2017-11-28T16:11:29.481Z,92.70
2017-11-28T16:13:59.525Z,92.20
2017-11-28T16:16:31.377Z,92.20
2017-11-28T16:19:03.568Z,92.20
2017-11-28T16:21:31.126Z,92.20
2017-11-28T16:24:02.074Z,92.20
2017-11-28T16:26:30.908Z,92.10
2017-11-28T16:29:03.327Z,92.00
2017-11-28T16:31:31.112Z,92.00
2017-11-28T16:34:08.374Z,91.80
2017-11-28T16:36:41.295Z,91.80
2017-11-28T16:39:10.716Z,91.80
2017-11-28T16:41:39.912Z,91.70
2017-11-28T16:44:10.421Z,91.80
2017-11-28T16:46:41.795Z,91.70
2017-11-28T16:49:10.239Z,91.60
2017-11-28T16:51:40.974Z,91.50
2017-11-28T16:54:10.883Z,91.50
2017-11-28T16:56:41.214Z,91.50
2017-11-28T16:59:12.064Z,91.50
2017-11-28T17:01:41.275Z,91.40
2017-11-28T17:04:10.418Z,91.50
2017-11-28T17:06:40.546Z,91.40
2017-11-28T17:09:10.234Z,91.60
2017-11-28T17:11:41.982Z,91.50
2017-11-28T17:14:10.314Z,91.40
2017-11-28T17:16:41.672Z,91.40
2017-11-28T17:19:11.099Z,91.30
2017-11-28T17:21:40.769Z,91.30
2017-11-28T17:24:09.120Z,91.30
2017-11-28T17:26:36.704Z,91.30
2017-11-28T17:29:12.855Z,91.20
2017-11-28T17:31:40.485Z,91.10
2017-11-28T17:34:09.206Z,91.20
2017-11-28T17:36:42.562Z,91.20
2017-11-28T17:39:10.941Z,90.90
2017-11-28T17:41:44.050Z,90.80
2017-11-28T17:44:15.195Z,90.80
2017-11-28T17:46:44.638Z,90.90
2017-11-28T17:49:15.496Z,90.90
2017-11-28T17:51:46.838Z,90.90
2017-11-28T17:54:14.402Z,90.60
2017-11-28T17:56:45.761Z,90.50
2017-11-28T17:59:17.150Z,90.70
2017-11-28T18:01:44.755Z,90.90
2017-11-28T18:04:15.675Z,90.80
2017-11-28T18:06:44.468Z,90.80
2017-11-28T18:09:15.310Z,90.50
2017-11-28T18:11:46.202Z,90.50
2017-11-28T18:14:17.283Z,90.40
2017-11-28T18:16:48.190Z,90.40
2017-11-28T18:19:15.796Z,90.30
2017-11-28T18:21:45.627Z,90.30
2017-11-28T18:24:16.489Z,90.30
2017-11-28T18:26:45.527Z,90.20
2017-11-28T18:29:16.657Z,90.20
2017-11-28T18:31:45.427Z,90.40
2017-11-28T18:34:16.551Z,90.40
2017-11-28T18:36:45.754Z,90.20
2017-11-28T18:39:17.721Z,90.50
2017-11-28T18:41:46.118Z,90.30
2017-11-28T18:44:16.231Z,90.30
2017-11-28T18:46:46.051Z,90.20
2017-11-28T18:49:15.614Z,90.00
2017-11-28T18:51:47.401Z,90.00
2017-11-28T18:54:15.756Z,90.20
2017-11-28T18:56:46.451Z,90.20
2017-11-28T18:59:17.072Z,90.30
2017-11-28T19:01:45.863Z,90.40
2017-11-28T19:04:19.108Z,90.30
2017-11-28T19:06:46.808Z,90.40
2017-11-28T19:09:17.670Z,90.30
2017-11-28T19:11:46.399Z,90.00
2017-11-28T19:14:17.046Z,90.00
2017-11-28T19:16:46.055Z,90.00
2017-11-28T19:19:16.362Z,90.10
2017-11-28T19:21:47.235Z,89.60
2017-11-28T19:24:16.480Z,89.50
2017-11-28T19:26:46.312Z,89.80
2017-11-28T19:29:17.054Z,90.00
2017-11-28T19:31:45.915Z,90.00
2017-11-28T19:34:15.827Z,89.30
2017-11-28T19:36:47.253Z,89.70
2017-11-28T19:39:17.942Z,89.60
2017-11-28T19:41:46.936Z,89.40
2017-11-28T19:44:16.857Z,89.10
2017-11-28T19:46:46.781Z,89.00
2017-11-28T19:49:16.697Z,89.40
2017-11-28T19:51:46.424Z,89.30
2017-11-28T19:54:16.369Z,89.30
2017-11-28T19:56:47.666Z,89.30
2017-11-28T19:59:17.861Z,89.70
2017-11-28T20:01:46.774Z,89.70
2017-11-28T20:04:17.671Z,89.40
2017-11-28T20:06:48.583Z,89.30
2017-11-28T20:09:17.795Z,89.30
2017-11-28T20:11:47.207Z,89.30
2017-11-28T20:14:19.139Z,89.70
2017-11-28T20:16:47.815Z,89.80
2017-11-28T20:19:19.669Z,89.50
2017-11-28T20:21:47.780Z,89.50
2017-11-28T20:24:17.676Z,89.30
2017-11-28T20:26:48.066Z,89.70
2017-11-28T20:29:18.883Z,89.70
2017-11-28T20:31:48.441Z,89.40
2017-11-28T20:34:18.178Z,89.40
2017-11-28T20:36:49.078Z,89.40
2017-11-28T20:39:19.932Z,89.30
2017-11-28T20:41:48.268Z,90.00
2017-11-28T20:44:18.298Z,90.00
2017-11-28T20:46:48.363Z,89.80
2017-11-28T20:49:30.967Z,89.90
2017-11-28T20:51:59.994Z,89.80
2017-11-28T20:54:27.563Z,89.80
2017-11-28T20:56:58.731Z,89.80
2017-11-28T20:59:27.367Z,89.50
2017-11-28T21:01:57.431Z,89.60
2017-11-28T21:04:27.045Z,89.60
2017-11-28T21:06:57.785Z,89.50
2017-11-28T21:09:28.457Z,89.60
2017-11-28T21:11:57.116Z,89.80
2017-11-28T21:14:27.832Z,89.70
2017-11-28T21:16:55.558Z,89.70
2017-11-28T21:19:29.102Z,90.00
2017-11-28T21:28:08.370Z,89.80
2017-11-28T21:35:56.918Z,89.30
2017-11-28T21:41:12.855Z,89.50
2017-11-28T21:43:54.801Z,89.50
2017-11-28T21:46:23.186Z,89.40
2017-11-28T21:48:54.074Z,89.00
2017-11-28T21:51:22.777Z,89.00
2017-11-28T21:53:52.499Z,89.20
2017-11-28T21:56:22.896Z,89.30
2017-11-28T21:58:53.543Z,89.50
2017-11-28T22:01:23.067Z,89.20
2017-11-28T22:03:53.622Z,89.20
2017-11-28T22:06:24.675Z,89.20
2017-11-28T22:08:52.810Z,89.40
2017-11-28T22:11:24.313Z,89.40
2017-11-28T22:13:53.448Z,89.70
2017-11-28T22:16:22.623Z,89.20
2017-11-28T22:18:50.217Z,89.70
2017-11-28T22:21:18.554Z,89.70
2017-11-28T22:23:46.155Z,89.60
2017-11-28T22:26:13.733Z,89.60
2017-11-28T22:28:41.322Z,89.50
2017-11-28T22:31:08.908Z,89.30
2017-11-28T22:33:37.243Z,89.40
2017-11-28T22:36:04.815Z,89.40
2017-11-28T22:38:33.158Z,89.30
2017-11-28T22:41:00.759Z,89.20
2017-11-28T22:43:28.360Z,89.20
2017-11-28T22:45:55.913Z,89.20
2017-11-28T22:48:23.553Z,89.40
2017-11-28T22:50:51.110Z,90.00
2017-11-28T22:53:19.447Z,89.30
2017-11-28T22:55:47.050Z,88.80
2017-11-28T22:58:14.633Z,88.60
2017-11-28T23:00:42.202Z,88.80
2017-11-28T23:03:10.520Z,88.90
2017-11-28T23:05:38.114Z,88.90
2017-11-28T23:08:05.658Z,89.10
2017-11-28T23:10:33.307Z,88.70
2017-11-28T23:13:00.930Z,88.30
2017-11-28T23:15:28.509Z,88.50
2017-11-28T23:17:56.078Z,88.50
2017-11-28T23:20:23.656Z,88.80
2017-11-28T23:22:51.222Z,88.30
2017-11-28T23:25:18.822Z,88.80
2017-11-28T23:27:46.393Z,88.70
2017-11-28T23:30:13.976Z,88.70
2017-11-28T23:32:41.572Z,88.60
2017-11-28T23:35:09.908Z,89.00
2017-11-28T23:37:37.502Z,88.50
2017-11-28T23:40:05.070Z,88.60
2017-11-28T23:42:32.635Z,88.50
2017-11-28T23:45:00.179Z,88.50
2017-11-28T23:47:27.755Z,88.50
2017-11-28T23:49:55.319Z,88.50
2017-11-28T23:52:23.664Z,88.20
2017-11-28T23:54:51.266Z,88.20
